AirNav   Pilot Hours Calculator
 
 764 users online  

9TX4 Flying H Ranch Airport
Liberty Hill, Texas, USA

GOING TO LIBERTY HILL?


FAA INFORMATION EFFECTIVE 11 AUGUST 2022

Location

FAA Identifier: 9TX4
Lat/Long: 30-39-34.6800N 097-54-40.0500W
30-39.578000N 097-54.667500W
30.6596333,-97.9111250
(estimated)
Elevation: 1000 ft. / 305 m (estimated)
Variation: 06E (1995)
From city: 1 mile N of LIBERTY HILL, TX
Time zone: UTC -5 (UTC -6 during Standard Time)
Zip code: 78642

Airport Operations

Airport use: Private use. Permission required prior to landing
Activation date: 06/2000
Control tower: no
ARTCC: HOUSTON CENTER
FSS: SAN ANGELO FLIGHT SERVICE STATION
Attendance: UNATNDD
Wind indicator: yes
Segmented circle: no

Airport Communications

WX AWOS-3PT at RYW (10 nm S): 119.375 (512-267-1365)
WX AWOS-3PT at GTU (12 nm E): PHONE 512-869-3430
WX ASOS at BMQ (18 nm W): 119.925 (512-756-7277)

Nearby radio navigation aids

VOR radial/distance  VOR name  Freq  Var
GRKr186/22.9GRAY VOR/DME111.8007E
CWKr305/25.9CENTEX VORTAC112.8006E
AGJr154/33.7GOOCH SPRINGS VORTAC112.5005E

Airport Services

Runway Information

Runway 17/35

Dimensions: 2500 x 100 ft. / 762 x 30 m
Surface: turf
RUNWAY 17  RUNWAY 35
Traffic pattern: leftleft
Obstructions: 30 ft. trees, 50 ft. from runway30 ft. trees, 50 ft. from runway

Airport Ownership and Management from official FAA records

Ownership: Privately-owned
Owner: LISA & PATRICK HARLOW
901 CR 279
LIBERTY HILL, TX 78642
Phone 512-778-5209
Manager: LISA & PATRICK HARLOW
901 CR 279
LIBERTY HILL, TX 78642
Phone 512-778-5209

Airport Operational Statistics

Aircraft based on the field: 1
Single engine airplanes: 1
    

Additional Remarks

PRIVATE AIRSTRIP-DAYLIGHT OPERATIONS ONLY.
FOR CD CTC AUSTIN APCH AT 512-269-7865.

Instrument Procedures

There are no published instrument procedures at 9TX4.

Some nearby airports with instrument procedures:

KRYW - Lago Vista TX/Rusty Allen Airport (10 nm S)
KGTU - Georgetown Executive Airport (12 nm E)
KBMQ - Burnet Municipal Airport-Kate Craddock Field (18 nm W)
3R9 - Lakeway Airpark (19 nm S)
KEDC - Austin Executive Airport (24 nm SE)
 
Loc | Ops | Rwys | IFR | FBO | Links
Com | Nav | Svcs | Stats | Notes
Area around 9TX4 (Flying H Ranch Airport)
 
Road maps at: MapQuest Bing Google
 
Aerial photo
No photo
 
Sectional chart

 
Airport distance calculator
Flying to Flying H Ranch Airport? Find the distance to fly.

From to 9TX4

Sunrise and sunset
Times for 17-Aug-2022
 Local
(UTC-5)
 Zulu
(UTC)
Morning civil twilight06:3511:35
Sunrise07:0012:00
Sunset20:1101:11
Evening civil twilight20:3601:36

Current date and time
Zulu (UTC)  17-Aug-2022 05:11:47
Local (UTC-5)  17-Aug-2022 00:11:47
 
METAR
KRYW 
10nm S 
170455Z AUTO 17005KT 10SM CLR 29/20 A2997 RMK AO2 LTG DSNT W T02850200
KGTU 
13nm E 
170456Z AUTO 17008KT 10SM CLR 31/21 A2995 RMK AO2 SLP132 T03060211
KBMQ 
17nm W 
170453Z AUTO 16005KT 10SM CLR 30/20 A2998 RMK AO2 SLP130 T03000200
TAF
KGRK 
25nm N 
170000Z 1700/1806 18008KT 9999 SCT080 OVC250 QNH2986INS BECMG 1713/1714 15006KT 9999 BKN012 QNH2995INS BECMG 1716/1717 20009KT 9999 FEW080 QNH2998INS BECMG 1723/1800 22010G15KT 9999 VCTS SCT080 BKN100CB QNH2999INS TX36/1721Z TN24/1712Z
KAUS 
25nm SE 
161720Z 1618/1724 17010KT P6SM SCT050 FM170800 19003KT P6SM SCT020 FM171500 21010KT P6SM SCT050
NOTAMs
Click for the latest NOTAMs
NOTAMs are issued by the DoD/FAA and will open in a separate window not controlled by AirNav.

 

 
 

Would you like to see your business listed on this page?

 If your business provides an interesting product or service to pilots, flight crews, aircraft, or users of the Flying H Ranch Airport, you should consider listing it here.  To start the listing process, click on the button below
 
Add a business
 

Other Pages about Flying H Ranch Airport

Update a link
 
Copyright © AirNav, LLC. All rights reserved. Privacy Policy  Contact